createdAt,value
2018-12-14T00:00:11.327Z,98.10
2018-12-14T00:02:40.081Z,98.10
2018-12-14T00:05:08.570Z,98.00
2018-12-14T00:07:37.109Z,98.00
2018-12-14T00:10:06.812Z,97.90
2018-12-14T00:12:35.432Z,97.80
2018-12-14T00:15:05.368Z,97.50
2018-12-14T00:17:33.926Z,97.70
2018-12-14T00:20:02.491Z,98.00
2018-12-14T00:22:31.029Z,97.90
2018-12-14T00:24:59.551Z,97.90
2018-12-14T00:27:28.156Z,97.70
2018-12-14T00:29:57.169Z,97.80
2018-12-14T00:32:25.929Z,97.50
2018-12-14T00:34:54.426Z,97.50
2018-12-14T00:37:22.919Z,97.60
2018-12-14T00:39:51.361Z,97.60
2018-12-14T00:42:19.842Z,97.70
2018-12-14T00:44:48.405Z,97.50
2018-12-14T00:47:17.201Z,97.40
2018-12-14T00:49:45.677Z,97.20
2018-12-14T00:52:14.253Z,97.20
2018-12-14T00:54:42.799Z,97.10
2018-12-14T00:57:11.530Z,96.90
2018-12-14T00:59:40.076Z,96.80
2018-12-14T01:02:12.856Z,96.80
2018-12-14T01:04:41.480Z,96.80
2018-12-14T01:07:11.290Z,96.70
2018-12-14T01:09:39.744Z,96.70
2018-12-14T01:12:08.297Z,96.90
2018-12-14T01:14:36.869Z,96.80
2018-12-14T01:17:05.524Z,97.20
2018-12-14T01:19:34.075Z,97.00
2018-12-14T01:22:02.590Z,97.00
2018-12-14T01:24:31.224Z,97.40
2018-12-14T01:26:59.725Z,97.20
2018-12-14T01:29:28.209Z,96.90
2018-12-14T01:32:03.390Z,97.10
2018-12-14T01:34:31.868Z,97.10
2018-12-14T01:37:00.366Z,96.90
2018-12-14T01:39:28.908Z,96.50
2018-12-14T01:41:57.382Z,96.50
2018-12-14T01:44:25.874Z,96.40
2018-12-14T01:46:54.514Z,96.60
2018-12-14T01:49:23.072Z,96.60
2018-12-14T01:51:51.525Z,96.70
2018-12-14T01:54:20.051Z,96.80
2018-12-14T01:56:48.625Z,96.80
2018-12-14T01:59:17.101Z,96.80
2018-12-14T02:01:45.868Z,96.70
2018-12-14T02:04:14.469Z,96.80
2018-12-14T02:06:42.974Z,96.80
2018-12-14T02:09:11.495Z,96.60
2018-12-14T02:11:40.120Z,96.60
2018-12-14T02:14:08.634Z,96.80
2018-12-14T02:16:37.257Z,96.60
2018-12-14T02:19:05.906Z,96.70
2018-12-14T02:21:34.389Z,96.70
2018-12-14T02:24:02.934Z,96.70
2018-12-14T02:26:31.539Z,96.80
2018-12-14T02:29:00.008Z,96.70
2018-12-14T02:31:28.606Z,97.00
2018-12-14T02:33:57.089Z,97.10
2018-12-14T02:36:25.589Z,96.90
2018-12-14T02:38:54.158Z,96.80
2018-12-14T02:41:22.673Z,96.40
2018-12-14T02:43:51.174Z,96.40
2018-12-14T02:46:19.676Z,96.40
2018-12-14T02:48:48.144Z,96.50
2018-12-14T02:51:16.644Z,96.50
2018-12-14T02:53:45.160Z,96.80
2018-12-14T02:56:13.624Z,96.70
2018-12-14T02:58:42.129Z,96.50
2018-12-14T03:01:10.650Z,96.40
2018-12-14T03:03:39.163Z,96.30
2018-12-14T03:06:07.874Z,96.50
2018-12-14T03:08:36.414Z,96.60
2018-12-14T03:11:04.890Z,96.40
2018-12-14T03:13:33.385Z,96.50
2018-12-14T03:16:02.081Z,96.40
2018-12-14T03:18:30.847Z,96.60
2018-12-14T03:20:59.362Z,96.60
2018-12-14T03:23:27.923Z,96.70
2018-12-14T03:25:56.834Z,96.60
2018-12-14T03:28:25.324Z,96.70
2018-12-14T03:30:53.964Z,96.70
2018-12-14T03:33:22.539Z,96.80
2018-12-14T03:35:51.080Z,96.80
2018-12-14T03:38:19.605Z,96.40
2018-12-14T03:40:48.102Z,96.30
2018-12-14T03:43:16.593Z,96.70
2018-12-14T03:45:45.120Z,96.50
2018-12-14T03:48:13.610Z,96.60
2018-12-14T03:50:42.142Z,96.70
2018-12-14T03:53:10.697Z,96.70
2018-12-14T03:55:39.241Z,96.60
2018-12-14T03:58:07.743Z,96.40
2018-12-14T04:00:36.630Z,96.50
2018-12-14T04:03:05.485Z,96.20
2018-12-14T04:05:34.257Z,96.00
2018-12-14T04:08:02.764Z,96.00
2018-12-14T04:10:31.229Z,95.70
2018-12-14T04:12:59.722Z,95.50
2018-12-14T04:15:28.269Z,95.50
2018-12-14T04:17:56.736Z,95.40
2018-12-14T04:20:25.205Z,95.60
2018-12-14T04:22:53.797Z,95.70
2018-12-14T04:25:22.571Z,95.20
2018-12-14T04:27:51.044Z,95.50
2018-12-14T04:30:19.546Z,95.80
2018-12-14T04:32:48.009Z,95.70
2018-12-14T04:35:16.494Z,95.60
2018-12-14T04:37:45.237Z,95.70
2018-12-14T04:40:13.790Z,95.50
2018-12-14T04:42:48.885Z,95.60
2018-12-14T04:45:13.076Z,95.70
2018-12-14T04:47:41.644Z,95.60
2018-12-14T04:50:10.544Z,95.50
2018-12-14T04:52:39.155Z,95.10
2018-12-14T04:55:07.870Z,95.30
2018-12-14T04:57:36.382Z,95.40
2018-12-14T05:00:06.637Z,95.20
2018-12-14T05:02:35.229Z,95.40
2018-12-14T05:05:04.409Z,95.50
2018-12-14T05:07:32.941Z,95.50
2018-12-14T05:10:01.471Z,95.70
2018-12-14T05:12:29.994Z,96.00
2018-12-14T05:14:58.547Z,96.00
2018-12-14T05:17:27.143Z,96.10
2018-12-14T05:19:55.637Z,95.70
2018-12-14T05:22:24.162Z,95.60
2018-12-14T05:24:52.668Z,95.80
2018-12-14T05:27:21.192Z,95.90
2018-12-14T05:29:49.900Z,96.10
2018-12-14T05:32:18.859Z,95.80
2018-12-14T05:34:47.358Z,96.20
2018-12-14T05:37:15.906Z,96.00
2018-12-14T05:39:44.392Z,95.80
2018-12-14T05:42:13.014Z,95.60
2018-12-14T05:44:41.539Z,95.60
2018-12-14T05:47:10.036Z,95.40
2018-12-14T05:49:38.515Z,95.40
2018-12-14T05:52:07.101Z,95.70
2018-12-14T05:54:35.841Z,95.60
2018-12-14T05:57:04.373Z,95.70
2018-12-14T05:59:32.931Z,95.70
2018-12-14T06:02:01.435Z,95.70
2018-12-14T06:04:29.900Z,95.60
2018-12-14T06:06:58.472Z,95.80
2018-12-14T06:09:26.972Z,95.70
2018-12-14T06:11:55.509Z,95.60
2018-12-14T06:14:24.041Z,95.30
2018-12-14T06:16:52.545Z,95.50
2018-12-14T06:19:21.063Z,95.70
2018-12-14T06:21:49.626Z,95.70
2018-12-14T06:24:18.169Z,95.30
2018-12-14T06:26:46.735Z,95.50
2018-12-14T06:29:15.998Z,95.90
2018-12-14T06:31:44.649Z,95.70
2018-12-14T06:34:13.188Z,95.80
2018-12-14T06:36:42.384Z,95.90
2018-12-14T06:39:10.892Z,95.80
2018-12-14T06:41:39.916Z,95.60
2018-12-14T06:44:08.451Z,95.80
2018-12-14T06:46:36.988Z,95.90
2018-12-14T06:49:05.487Z,95.90
2018-12-14T06:51:34.038Z,95.70
2018-12-14T06:54:02.556Z,95.90
2018-12-14T06:56:31.160Z,95.90
2018-12-14T06:58:59.684Z,96.00
2018-12-14T07:01:28.196Z,96.40
2018-12-14T07:03:56.684Z,96.20
2018-12-14T07:06:25.230Z,96.30
2018-12-14T07:08:56.029Z,96.40
2018-12-14T07:11:24.680Z,96.20
2018-12-14T07:13:53.345Z,96.40
2018-12-14T07:16:21.953Z,96.10
2018-12-14T07:18:50.500Z,96.10
2018-12-14T07:21:19.018Z,96.30
2018-12-14T07:23:47.514Z,96.20
2018-12-14T07:26:16.048Z,96.20
2018-12-14T07:28:44.602Z,96.10
2018-12-14T07:31:13.160Z,95.70
2018-12-14T07:33:41.808Z,96.00
2018-12-14T07:36:10.328Z,95.70
2018-12-14T07:38:38.854Z,95.80
2018-12-14T07:41:07.418Z,95.70
2018-12-14T07:43:36.032Z,95.70
2018-12-14T07:46:04.540Z,95.60
2018-12-14T07:48:33.052Z,95.80
2018-12-14T07:51:01.596Z,96.00
2018-12-14T07:53:30.108Z,96.00
2018-12-14T07:55:58.802Z,96.10
2018-12-14T07:58:27.280Z,96.20
2018-12-14T08:00:55.873Z,96.40
2018-12-14T08:03:24.498Z,96.10
2018-12-14T08:05:53.027Z,96.30
2018-12-14T08:08:21.641Z,96.10
2018-12-14T08:10:50.143Z,95.90
2018-12-14T08:13:19.452Z,96.20
2018-12-14T08:15:48.193Z,96.30
2018-12-14T08:18:17.533Z,96.00
2018-12-14T08:20:46.193Z,95.90
2018-12-14T08:23:14.806Z,96.10
2018-12-14T08:25:43.470Z,96.10
2018-12-14T08:28:11.962Z,95.70
2018-12-14T08:30:40.462Z,95.50
2018-12-14T08:33:08.998Z,95.60
2018-12-14T08:35:38.264Z,95.40
2018-12-14T08:38:06.879Z,95.70
2018-12-14T08:40:35.445Z,95.50
2018-12-14T08:43:03.971Z,95.40
2018-12-14T08:45:32.491Z,95.50
2018-12-14T08:48:01.453Z,95.70
2018-12-14T08:50:29.951Z,95.60
2018-12-14T08:52:58.425Z,95.50
2018-12-14T08:55:26.972Z,95.30
2018-12-14T08:57:55.508Z,95.40
2018-12-14T09:00:24.022Z,95.20
2018-12-14T09:02:52.558Z,95.20
2018-12-14T09:05:21.147Z,95.30
2018-12-14T09:07:49.668Z,95.00
2018-12-14T09:10:18.298Z,95.00
2018-12-14T09:12:46.801Z,95.00
2018-12-14T09:15:15.345Z,95.10
2018-12-14T09:17:43.850Z,95.10
2018-12-14T09:20:12.501Z,95.00
2018-12-14T09:22:41.014Z,94.90
2018-12-14T09:25:09.566Z,94.60
2018-12-14T09:27:38.121Z,94.80
2018-12-14T09:30:07.111Z,94.90
2018-12-14T09:32:35.661Z,94.60
2018-12-14T09:35:04.712Z,95.00
2018-12-14T09:37:33.207Z,94.50
2018-12-14T09:40:01.781Z,94.30
2018-12-14T09:42:30.303Z,94.10
2018-12-14T09:44:58.790Z,94.10
2018-12-14T09:47:27.447Z,93.80
2018-12-14T09:49:55.944Z,93.60
2018-12-14T09:52:24.476Z,93.70
2018-12-14T09:54:53.087Z,94.00
2018-12-14T09:57:21.595Z,94.10
2018-12-14T09:59:50.096Z,93.50
2018-12-14T10:02:18.643Z,93.50
2018-12-14T10:04:47.202Z,93.70
2018-12-14T10:07:15.784Z,93.50
2018-12-14T10:09:44.304Z,93.70
2018-12-14T10:12:12.845Z,93.80
2018-12-14T10:14:41.406Z,93.90
2018-12-14T10:17:10.081Z,93.30
2018-12-14T10:19:38.597Z,93.20
2018-12-14T10:22:07.209Z,93.10
2018-12-14T10:24:35.795Z,93.10
2018-12-14T10:27:04.550Z,92.90
2018-12-14T10:29:33.153Z,92.90
2018-12-14T10:32:01.679Z,92.70
2018-12-14T10:34:30.168Z,93.00
2018-12-14T10:36:58.755Z,93.10
2018-12-14T10:39:27.319Z,92.50
2018-12-14T10:41:55.888Z,92.80
2018-12-14T10:44:24.383Z,92.90
2018-12-14T10:46:52.910Z,92.60
2018-12-14T10:49:21.409Z,92.40
2018-12-14T10:51:50.229Z,92.50
2018-12-14T10:54:18.917Z,92.50
2018-12-14T10:56:47.470Z,92.50
2018-12-14T10:59:16.054Z,92.40
2018-12-14T11:01:54.729Z,92.30
2018-12-14T11:04:23.932Z,92.00
2018-12-14T11:06:52.635Z,91.50
2018-12-14T11:09:21.417Z,91.60
2018-12-14T11:11:49.909Z,92.00
2018-12-14T11:14:18.417Z,91.80
2018-12-14T11:16:46.973Z,92.00
2018-12-14T11:19:15.535Z,92.70
2018-12-14T11:21:44.175Z,92.30
2018-12-14T11:24:12.917Z,92.10
2018-12-14T11:26:41.443Z,91.50
2018-12-14T11:29:09.979Z,91.60
2018-12-14T11:31:38.510Z,91.60
2018-12-14T11:34:07.114Z,91.80
2018-12-14T11:36:35.645Z,91.70
2018-12-14T11:39:06.542Z,91.80
2018-12-14T11:41:35.277Z,91.70
2018-12-14T11:44:03.753Z,92.10
2018-12-14T11:46:32.293Z,92.30
2018-12-14T11:49:00.855Z,92.00
2018-12-14T11:51:29.962Z,91.60
2018-12-14T11:53:58.553Z,91.70
2018-12-14T11:56:27.183Z,91.50
2018-12-14T11:58:55.989Z,91.50
2018-12-14T12:01:24.692Z,91.50
2018-12-14T12:03:53.246Z,91.30
2018-12-14T12:06:21.741Z,91.70
2018-12-14T12:08:50.282Z,91.40
2018-12-14T12:11:18.809Z,91.60
2018-12-14T12:13:47.318Z,91.40
2018-12-14T12:16:15.884Z,91.30
2018-12-14T12:18:44.463Z,91.80
2018-12-14T12:21:13.072Z,91.90
2018-12-14T12:23:41.594Z,91.90
2018-12-14T12:26:10.076Z,91.40
2018-12-14T12:28:38.588Z,91.50
2018-12-14T12:31:07.150Z,91.90
2018-12-14T12:33:35.686Z,91.80
2018-12-14T12:36:04.188Z,91.80
2018-12-14T12:38:38.096Z,92.00
2018-12-14T12:41:03.311Z,92.30
2018-12-14T12:43:32.060Z,92.40
2018-12-14T12:46:00.583Z,92.10
2018-12-14T12:48:29.084Z,92.40
2018-12-14T12:51:03.156Z,92.30
2018-12-14T12:53:28.279Z,91.90
2018-12-14T12:55:56.825Z,92.00
2018-12-14T12:58:25.347Z,92.30
2018-12-14T13:00:53.862Z,91.80
2018-12-14T13:03:22.349Z,92.30
2018-12-14T13:05:50.903Z,92.00
2018-12-14T13:08:25.964Z,91.90
2018-12-14T13:10:54.522Z,92.20
2018-12-14T13:13:23.062Z,92.20
2018-12-14T13:15:51.563Z,92.20
2018-12-14T13:18:20.097Z,92.00
2018-12-14T13:20:48.611Z,92.50
2018-12-14T13:23:17.123Z,92.30
2018-12-14T13:25:45.679Z,92.20
2018-12-14T13:28:14.468Z,92.30
2018-12-14T13:30:43.164Z,92.60
2018-12-14T13:33:12.026Z,92.40
2018-12-14T13:35:40.523Z,92.40
2018-12-14T13:38:09.009Z,92.50
2018-12-14T13:40:37.564Z,92.40
2018-12-14T13:43:06.061Z,92.20
2018-12-14T13:45:34.749Z,92.40
2018-12-14T13:48:03.282Z,92.10
2018-12-14T13:50:31.906Z,92.00
2018-12-14T13:53:00.407Z,92.40
2018-12-14T13:55:28.927Z,92.40
2018-12-14T13:57:57.393Z,92.70
2018-12-14T14:00:26.123Z,93.10
2018-12-14T14:02:54.655Z,93.20
2018-12-14T14:05:23.209Z,92.80
2018-12-14T14:07:51.725Z,92.50
2018-12-14T14:10:20.260Z,92.60
2018-12-14T14:12:48.764Z,92.70
2018-12-14T14:15:20.814Z,92.90
2018-12-14T14:17:47.894Z,93.10
2018-12-14T14:20:16.473Z,92.90
2018-12-14T14:22:45.051Z,93.10
2018-12-14T14:25:17.509Z,92.80
2018-12-14T14:27:44.964Z,92.80
2018-12-14T14:30:13.502Z,92.60
2018-12-14T14:32:42.107Z,92.50
2018-12-14T14:35:10.596Z,92.50
2018-12-14T14:37:39.123Z,92.40
2018-12-14T14:40:07.813Z,92.40
2018-12-14T14:42:36.365Z,92.30
2018-12-14T14:45:05.448Z,92.40
2018-12-14T14:47:33.937Z,92.40
2018-12-14T14:50:02.427Z,92.20
2018-12-14T14:52:30.979Z,92.50
2018-12-14T14:54:59.931Z,92.30
2018-12-14T14:57:29.125Z,92.20
2018-12-14T14:59:57.652Z,92.20
2018-12-14T15:02:26.169Z,92.60
2018-12-14T15:04:54.820Z,92.70
2018-12-14T15:07:23.360Z,92.50
2018-12-14T15:09:51.944Z,92.50
2018-12-14T15:12:20.602Z,92.60
2018-12-14T15:14:49.490Z,92.20
2018-12-14T15:17:18.048Z,92.60
2018-12-14T15:19:46.656Z,92.90
2018-12-14T15:22:15.228Z,92.90
2018-12-14T15:24:43.852Z,92.90
2018-12-14T15:27:12.386Z,93.20
2018-12-14T15:29:40.906Z,93.20
2018-12-14T15:32:09.775Z,93.30
2018-12-14T15:34:38.338Z,93.20
2018-12-14T15:37:06.994Z,92.90
2018-12-14T15:39:35.598Z,93.10
2018-12-14T15:42:04.363Z,93.10
2018-12-14T15:44:32.948Z,92.90
2018-12-14T15:47:01.415Z,93.10
2018-12-14T15:49:29.877Z,93.20
2018-12-14T15:51:58.408Z,93.20
2018-12-14T15:54:26.930Z,93.40
2018-12-14T15:56:55.487Z,93.50
2018-12-14T15:59:24.068Z,93.70
2018-12-14T16:01:52.599Z,93.70
2018-12-14T16:04:21.113Z,93.50
2018-12-14T16:06:49.649Z,93.30
2018-12-14T16:09:18.165Z,93.20
2018-12-14T16:11:46.670Z,93.20
2018-12-14T16:14:15.238Z,93.40
2018-12-14T16:16:43.919Z,93.70
2018-12-14T16:19:12.793Z,93.30
2018-12-14T16:21:41.426Z,93.40
2018-12-14T16:24:10.088Z,93.50
2018-12-14T16:26:38.731Z,93.20
2018-12-14T16:29:07.885Z,93.30
2018-12-14T16:31:36.401Z,93.30
2018-12-14T16:34:04.998Z,93.80
2018-12-14T16:36:33.613Z,93.80
2018-12-14T16:39:02.121Z,93.80
2018-12-14T16:41:30.651Z,93.90
2018-12-14T16:43:59.198Z,93.90
2018-12-14T16:46:27.782Z,93.50
2018-12-14T16:48:56.361Z,93.60
2018-12-14T16:51:24.999Z,93.30
2018-12-14T16:53:58.790Z,93.10
2018-12-14T16:56:27.357Z,93.10
2018-12-14T16:58:55.940Z,93.60
2018-12-14T17:01:24.536Z,93.80
2018-12-14T17:03:53.086Z,93.90
2018-12-14T17:06:21.654Z,93.90
2018-12-14T17:08:50.266Z,93.80
2018-12-14T17:11:18.801Z,93.80
2018-12-14T17:13:47.326Z,93.90
2018-12-14T17:16:15.861Z,93.40
2018-12-14T17:18:44.630Z,93.50
2018-12-14T17:21:13.197Z,93.40
2018-12-14T17:23:41.728Z,93.70
2018-12-14T17:26:10.390Z,93.60
2018-12-14T17:28:41.846Z,93.60
2018-12-14T17:31:10.444Z,93.20
2018-12-14T17:33:39.129Z,93.40
2018-12-14T17:36:07.620Z,93.40
2018-12-14T17:38:36.211Z,93.50
2018-12-14T17:41:04.719Z,93.60
2018-12-14T17:43:33.390Z,93.50
2018-12-14T17:46:01.977Z,93.50
2018-12-14T17:48:30.478Z,93.50
2018-12-14T17:50:59.025Z,93.90
2018-12-14T17:53:27.691Z,94.00
2018-12-14T17:55:56.185Z,94.00
2018-12-14T17:58:24.717Z,93.90
2018-12-14T18:00:58.392Z,93.60
2018-12-14T18:03:23.798Z,93.90
2018-12-14T18:05:52.449Z,94.10
2018-12-14T18:08:21.032Z,94.00
2018-12-14T18:10:49.703Z,94.10
2018-12-14T18:13:18.216Z,94.10
2018-12-14T18:15:46.735Z,94.20
2018-12-14T18:18:15.336Z,94.30
2018-12-14T18:20:43.855Z,94.50
2018-12-14T18:23:12.374Z,94.20
2018-12-14T18:25:40.970Z,94.30
2018-12-14T18:28:09.496Z,94.40
2018-12-14T18:30:39.160Z,94.40
2018-12-14T18:33:07.876Z,94.30
2018-12-14T18:35:37.092Z,94.30
2018-12-14T18:38:05.837Z,94.20
2018-12-14T18:40:35.064Z,94.20
2018-12-14T18:43:03.819Z,94.30
2018-12-14T18:45:32.438Z,94.30
2018-12-14T18:48:01.047Z,94.40
2018-12-14T18:50:29.525Z,94.50
2018-12-14T18:52:58.117Z,94.60
2018-12-14T18:55:26.605Z,94.90
2018-12-14T18:57:55.129Z,95.00
2018-12-14T19:00:23.718Z,94.80
2018-12-14T19:02:58.990Z,94.80
2018-12-14T19:05:27.612Z,94.70
2018-12-14T19:07:56.424Z,94.80
2018-12-14T19:10:24.863Z,94.70
2018-12-14T19:12:53.399Z,94.70
2018-12-14T19:15:21.957Z,95.00
2018-12-14T19:17:50.473Z,95.10
2018-12-14T19:20:19.059Z,95.40
2018-12-14T19:22:48.478Z,95.10
2018-12-14T19:25:17.010Z,95.20
2018-12-14T19:27:45.563Z,95.30
2018-12-14T19:30:14.121Z,94.90
2018-12-14T19:32:42.631Z,95.00
2018-12-14T19:35:11.203Z,95.00
2018-12-14T19:37:39.754Z,95.00
2018-12-14T19:40:09.947Z,94.80
2018-12-14T19:42:38.522Z,94.80
2018-12-14T19:45:09.275Z,95.20
2018-12-14T19:47:38.053Z,95.40
2018-12-14T19:50:07.700Z,95.30
2018-12-14T19:52:36.360Z,95.40
2018-12-14T19:55:05.834Z,95.30
2018-12-14T19:57:34.441Z,95.00
2018-12-14T20:00:03.179Z,95.00
2018-12-14T20:02:31.807Z,95.10
2018-12-14T20:05:00.345Z,94.80
2018-12-14T20:07:28.843Z,95.30
2018-12-14T20:09:57.363Z,95.20
2018-12-14T20:12:26.123Z,95.30
2018-12-14T20:14:54.599Z,95.50
2018-12-14T20:17:23.167Z,95.50
2018-12-14T20:19:51.781Z,95.60
2018-12-14T20:22:20.394Z,95.60
2018-12-14T20:24:49.041Z,95.60
2018-12-14T20:27:24.834Z,95.40
2018-12-14T20:29:55.120Z,95.30
2018-12-14T20:32:23.817Z,95.40
2018-12-14T20:34:53.329Z,95.40
2018-12-14T20:37:21.973Z,95.40
2018-12-14T20:39:50.589Z,95.30
2018-12-14T20:42:19.097Z,95.30
2018-12-14T20:44:47.805Z,95.30
2018-12-14T20:47:16.284Z,95.20
2018-12-14T20:49:44.839Z,95.10
2018-12-14T20:52:13.513Z,95.30
2018-12-14T20:54:42.002Z,95.40
2018-12-14T20:57:10.601Z,95.40
2018-12-14T20:59:39.215Z,95.00
2018-12-14T21:02:07.791Z,95.20
2018-12-14T21:04:36.339Z,95.30
2018-12-14T21:07:04.939Z,95.30
2018-12-14T21:09:33.687Z,95.40
2018-12-14T21:12:02.294Z,95.20
2018-12-14T21:14:31.749Z,95.20
2018-12-14T21:17:00.378Z,95.20
2018-12-14T21:19:28.961Z,95.40
2018-12-14T21:21:57.559Z,95.40
2018-12-14T21:24:26.100Z,95.50
2018-12-14T21:26:54.716Z,95.40
2018-12-14T21:29:23.228Z,95.40
2018-12-14T21:31:51.769Z,95.50
2018-12-14T21:34:20.336Z,95.60
2018-12-14T21:36:48.958Z,95.50
2018-12-14T21:39:17.622Z,95.40
2018-12-14T21:41:46.128Z,95.40
2018-12-14T21:44:14.672Z,95.60
2018-12-14T21:46:43.396Z,95.60
2018-12-14T21:49:11.947Z,95.50
2018-12-14T21:51:41.389Z,95.80
2018-12-14T21:54:09.967Z,95.60
2018-12-14T21:56:38.490Z,95.60
2018-12-14T21:59:07.049Z,95.70
2018-12-14T22:01:35.521Z,95.50
2018-12-14T22:04:04.015Z,95.50
2018-12-14T22:06:32.584Z,95.50
2018-12-14T22:09:01.136Z,95.00
2018-12-14T22:11:29.666Z,95.10
2018-12-14T22:13:58.254Z,95.30
2018-12-14T22:16:27.137Z,95.20
2018-12-14T22:18:55.627Z,95.40
2018-12-14T22:21:24.143Z,95.40
2018-12-14T22:23:52.641Z,95.50
2018-12-14T22:26:21.134Z,95.40
2018-12-14T22:28:49.736Z,95.70
2018-12-14T22:31:18.235Z,95.70
2018-12-14T22:33:46.798Z,95.80
2018-12-14T22:36:15.311Z,95.80
2018-12-14T22:38:43.872Z,95.50
2018-12-14T22:41:12.404Z,95.50
2018-12-14T22:43:40.947Z,95.60
2018-12-14T22:46:09.532Z,95.70
2018-12-14T22:48:38.076Z,95.80
2018-12-14T22:51:06.754Z,95.90
2018-12-14T22:53:35.443Z,95.90
2018-12-14T22:56:04.088Z,95.70
2018-12-14T22:58:32.612Z,95.60
2018-12-14T23:01:01.835Z,95.40
2018-12-14T23:03:30.369Z,95.40
2018-12-14T23:05:58.879Z,95.10
2018-12-14T23:08:27.346Z,95.20
2018-12-14T23:10:55.901Z,95.20
2018-12-14T23:13:24.532Z,95.30
2018-12-14T23:15:53.073Z,95.40
2018-12-14T23:18:21.733Z,95.40
2018-12-14T23:20:50.214Z,95.50
2018-12-14T23:23:18.765Z,95.50
2018-12-14T23:25:48.503Z,95.60
2018-12-14T23:28:17.369Z,95.50
2018-12-14T23:30:45.939Z,95.50
2018-12-14T23:33:14.474Z,95.30
2018-12-14T23:35:42.957Z,95.50
2018-12-14T23:38:11.535Z,95.50
2018-12-14T23:40:40.038Z,95.40
2018-12-14T23:43:08.619Z,95.30
2018-12-14T23:45:37.137Z,95.20
2018-12-14T23:48:05.614Z,95.30
2018-12-14T23:50:34.123Z,95.50
2018-12-14T23:53:02.629Z,95.60
2018-12-14T23:55:31.202Z,95.60
2018-12-14T23:57:59.706Z,95.50
